Time;durP1;ratioP1;P1;durP2;ratioP2;P2;SDS_P1;SDS_P2;PMS_P1;PMS_P2;Temp;Humidity;BMP_temperature;BMP_pressure;BME280_temperature;BME280_humidity;BME280_pressure;Samples;Min_cycle;Max_cycle;Signal;HPM_P1;HPM_P2
2022/05/21 00:00:14;;;;;;;17.55;5.80;;;17.80;99.90;;;;;;5072485;28;20434;-52
2022/05/21 00:02:41;;;;;;;13.85;5.90;;;17.80;99.90;;;;;;5082718;28;20043;-51
2022/05/21 00:05:07;;;;;;;13.82;5.95;;;17.80;99.90;;;;;;5089656;28;20036;-55
2022/05/21 00:07:33;;;;;;;12.40;6.78;;;17.90;99.90;;;;;;5090586;28;20026;-51
2022/05/21 00:09:59;;;;;;;11.27;6.28;;;17.90;99.90;;;;;;5090325;28;20030;-53
2022/05/21 00:12:25;;;;;;;18.67;6.05;;;17.90;99.90;;;;;;5090740;28;20629;-52
2022/05/21 00:14:52;;;;;;;10.77;6.15;;;17.90;99.90;;;;;;5090523;28;20111;-55
2022/05/21 00:17:19;;;;;;;16.48;7.05;;;17.90;99.90;;;;;;5090709;28;20024;-48
2022/05/21 00:19:44;;;;;;;14.43;6.45;;;18.00;99.90;;;;;;5080612;28;20067;-53
2022/05/21 00:22:10;;;;;;;11.93;5.78;;;18.00;99.90;;;;;;5078022;28;20024;-53
2022/05/21 00:24:36;;;;;;;12.95;5.65;;;18.10;99.90;;;;;;5089020;28;20040;-55
2022/05/21 00:27:02;;;;;;;14.93;5.32;;;18.10;99.90;;;;;;5072933;28;20025;-50
2022/05/21 00:29:28;;;;;;;24.85;6.47;;;18.10;99.90;;;;;;5070183;28;20492;-51
2022/05/21 00:31:54;;;;;;;22.85;7.32;;;18.00;99.90;;;;;;5075221;28;20032;-49
2022/05/21 00:34:20;;;;;;;19.25;7.07;;;18.00;99.90;;;;;;5090876;28;20020;-50
2022/05/21 00:36:46;;;;;;;14.48;7.32;;;18.00;99.90;;;;;;5089085;28;20026;-53
2022/05/21 00:39:11;;;;;;;19.27;6.80;;;18.00;99.90;;;;;;5090639;28;20032;-51
2022/05/21 00:41:39;;;;;;;10.35;6.45;;;18.00;99.90;;;;;;5087320;28;20046;-53
2022/05/21 00:44:06;;;;;;;11.75;6.22;;;18.00;99.90;;;;;;5080646;28;20036;-52
2022/05/21 00:46:38;;;;;;;16.92;5.95;;;18.10;99.90;;;;;;5090233;28;20103;-54
2022/05/21 00:49:27;;;;;;;13.55;5.97;;;18.10;99.90;;;;;;5090319;28;20039;-49
2022/05/21 00:52:07;;;;;;;7.63;5.88;;;18.00;99.90;;;;;;5077140;28;20028;-53
2022/05/21 00:54:47;;;;;;;12.75;6.72;;;18.10;99.90;;;;;;5073538;28;20032;-51
2022/05/21 00:59:47;;;;;;;9.57;6.65;;;18.10;99.90;;;;;;5080357;28;20384;-53
2022/05/21 01:00:35;;;;;;;13.13;6.88;;;18.10;99.90;;;;;;5063141;28;20107;-53
2022/05/21 01:03:01;;;;;;;18.73;8.02;;;18.10;99.90;;;;;;5083724;28;20040;-53
2022/05/21 01:05:27;;;;;;;14.68;7.25;;;18.10;99.90;;;;;;5090484;28;20471;-52
2022/05/21 01:07:56;;;;;;;17.80;7.35;;;18.10;99.90;;;;;;5074444;28;20078;-50
2022/05/21 01:10:27;;;;;;;16.33;7.28;;;18.20;99.90;;;;;;5074196;28;20025;-55
2022/05/21 01:12:55;;;;;;;11.32;6.35;;;18.20;99.90;;;;;;5085924;28;20036;-55
2022/05/21 01:15:28;;;;;;;13.43;6.32;;;18.30;99.90;;;;;;5092475;28;20107;-50
2022/05/21 01:17:53;;;;;;;24.00;6.40;;;18.30;99.90;;;;;;5092527;28;20095;-50
2022/05/21 01:20:35;;;;;;;18.17;5.93;;;18.30;99.90;;;;;;5090471;28;20116;-48
2022/05/21 01:23:00;;;;;;;16.08;6.05;;;18.50;99.90;;;;;;5081185;28;20059;-48
2022/05/21 01:25:29;;;;;;;16.85;6.68;;;18.40;99.90;;;;;;5092827;28;20659;-55
2022/05/21 01:27:55;;;;;;;17.92;7.13;;;18.50;99.90;;;;;;5084852;28;20032;-51
2022/05/21 01:30:28;;;;;;;21.52;7.20;;;18.50;99.90;;;;;;5056043;28;20028;-47
2022/05/21 01:32:54;;;;;;;27.63;7.45;;;18.50;99.90;;;;;;5084164;28;20082;-49
2022/05/21 01:35:20;;;;;;;19.50;8.63;;;18.40;99.90;;;;;;5091679;28;20592;-51
2022/05/21 01:37:47;;;;;;;15.07;7.25;;;18.40;99.90;;;;;;5093449;28;20032;-51
2022/05/21 01:40:14;;;;;;;18.13;7.32;;;18.20;99.90;;;;;;5092013;28;20497;-50
2022/05/21 01:42:39;;;;;;;18.75;8.82;;;18.00;99.90;;;;;;5090515;28;20024;-52
2022/05/21 01:45:06;;;;;;;22.20;6.82;;;17.90;99.90;;;;;;5077838;28;20078;-51
2022/05/21 01:47:32;;;;;;;15.55;7.93;;;17.80;99.90;;;;;;5073094;28;20623;-50
2022/05/21 01:49:58;;;;;;;17.98;8.32;;;17.80;99.90;;;;;;5074196;28;20060;-52
2022/05/21 01:52:25;;;;;;;9.77;7.25;;;17.80;99.90;;;;;;5073157;28;20016;-47
2022/05/21 01:54:51;;;;;;;24.40;8.52;;;17.70;99.90;;;;;;5073101;28;20039;-51
2022/05/21 01:57:17;;;;;;;13.35;7.53;;;17.70;99.90;;;;;;5073487;28;20036;-48
2022/05/21 01:59:42;;;;;;;17.10;7.85;;;17.70;99.90;;;;;;5078632;28;20032;-52
2022/05/21 02:02:09;;;;;;;18.70;7.97;;;17.80;99.90;;;;;;5091063;28;20032;-47
2022/05/21 02:04:36;;;;;;;19.02;9.30;;;17.80;99.90;;;;;;5084831;28;20388;-53
2022/05/21 02:07:02;;;;;;;14.25;8.30;;;17.80;99.90;;;;;;5092525;28;20032;-48
2022/05/21 02:09:27;;;;;;;16.40;9.52;;;17.80;99.90;;;;;;5083322;28;20395;-49
2022/05/21 02:11:53;;;;;;;14.70;8.45;;;17.90;99.90;;;;;;5092392;28;20035;-50
2022/05/21 02:14:19;;;;;;;19.58;7.93;;;17.90;99.90;;;;;;5079969;28;20502;-55
2022/05/21 02:16:45;;;;;;;12.52;8.20;;;17.90;99.90;;;;;;5071147;28;20020;-50
2022/05/21 02:19:10;;;;;;;24.65;8.77;;;17.90;99.90;;;;;;5081790;28;20467;-49
2022/05/21 02:21:40;;;;;;;14.38;9.05;;;17.80;99.90;;;;;;5092025;28;20049;-55
2022/05/21 02:24:08;;;;;;;17.17;7.80;;;17.80;99.90;;;;;;5092339;28;20404;-52
2022/05/21 02:26:38;;;;;;;15.10;7.57;;;17.80;99.90;;;;;;5081507;28;20033;-51
2022/05/21 02:29:06;;;;;;;12.27;7.13;;;17.90;99.90;;;;;;5072158;28;20395;-51
2022/05/21 02:31:32;;;;;;;16.48;7.82;;;17.90;99.90;;;;;;5082438;28;20461;-50
2022/05/21 02:33:59;;;;;;;11.70;8.15;;;17.90;99.90;;;;;;5071483;28;20048;-52
2022/05/21 02:41:54;;;;;;;17.77;8.73;;;17.90;99.90;;;;;;5080579;28;20066;-52
2022/05/21 02:44:20;;;;;;;17.15;8.43;;;17.90;99.90;;;;;;5089463;28;20026;-52
2022/05/21 02:46:45;;;;;;;20.77;9.25;;;17.90;99.90;;;;;;5072549;28;20032;-49
2022/05/21 02:49:11;;;;;;;20.88;8.57;;;17.80;99.90;;;;;;5070227;28;20032;-49
2022/05/21 02:51:37;;;;;;;10.52;7.90;;;17.80;99.90;;;;;;5071571;28;20036;-50
2022/05/21 02:54:03;;;;;;;21.38;8.38;;;17.80;99.90;;;;;;5071604;28;20021;-49
2022/05/21 02:56:29;;;;;;;13.88;8.02;;;17.80;99.90;;;;;;5071131;28;20082;-50
2022/05/21 02:58:54;;;;;;;11.45;8.90;;;17.80;99.90;;;;;;5070422;28;20036;-53
2022/05/21 03:01:20;;;;;;;21.23;10.43;;;17.80;99.90;;;;;;5087793;28;20056;-50
2022/05/21 03:03:45;;;;;;;20.55;8.35;;;17.80;99.90;;;;;;5090072;28;20043;-51
2022/05/21 03:06:11;;;;;;;14.48;8.82;;;17.80;99.90;;;;;;5091278;28;20027;-50
2022/05/21 03:11:21;;;;;;;18.27;10.48;;;17.80;99.90;;;;;;5075963;28;20111;-52
2022/05/21 03:13:47;;;;;;;18.90;11.18;;;17.80;99.90;;;;;;5071895;28;20111;-52
2022/05/21 03:16:13;;;;;;;22.27;9.98;;;17.80;99.90;;;;;;5071835;28;20040;-52
2022/05/21 03:18:39;;;;;;;18.58;9.30;;;17.80;99.90;;;;;;5070825;28;20031;-52
2022/05/21 03:21:05;;;;;;;17.20;9.65;;;17.70;99.90;;;;;;5086066;28;20032;-51
2022/05/21 03:23:30;;;;;;;17.63;9.98;;;17.70;99.90;;;;;;5074753;28;20044;-51
2022/05/21 03:25:56;;;;;;;17.92;10.65;;;17.60;99.90;;;;;;5070994;28;20067;-52
2022/05/21 03:28:22;;;;;;;15.02;9.25;;;17.60;99.90;;;;;;5069339;28;20091;-49
2022/05/21 03:30:48;;;;;;;21.10;9.43;;;17.70;99.90;;;;;;5070372;28;20368;-50
2022/05/21 03:33:14;;;;;;;19.52;9.45;;;17.70;99.90;;;;;;5072053;28;20592;-47
2022/05/21 03:35:41;;;;;;;14.57;8.90;;;17.70;99.90;;;;;;5071021;28;20024;-53
2022/05/21 03:38:07;;;;;;;14.55;8.60;;;17.70;99.90;;;;;;5070665;28;20044;-51
2022/05/21 03:40:33;;;;;;;16.33;9.43;;;17.70;99.90;;;;;;5070052;28;20141;-50
2022/05/21 03:42:59;;;;;;;15.35;8.95;;;17.80;99.90;;;;;;5080833;28;20036;-52
2022/05/21 03:45:26;;;;;;;17.60;9.25;;;17.70;99.90;;;;;;5074451;28;20032;-55
2022/05/21 03:47:52;;;;;;;16.42;8.75;;;17.70;99.90;;;;;;5073388;28;20053;-50
2022/05/21 03:50:22;;;;;;;18.95;9.23;;;17.70;99.90;;;;;;5090408;28;20028;-51
2022/05/21 03:52:47;;;;;;;14.23;8.73;;;17.80;99.90;;;;;;5090321;28;20081;-51
2022/05/21 03:55:13;;;;;;;23.20;10.07;;;17.80;99.90;;;;;;5090627;28;20456;-52
2022/05/21 03:57:39;;;;;;;13.48;9.43;;;17.80;99.90;;;;;;5090368;28;20031;-51
2022/05/21 04:00:08;;;;;;;15.95;9.25;;;17.80;99.90;;;;;;5088743;28;20531;-50
2022/05/21 04:02:36;;;;;;;13.60;8.43;;;17.90;99.90;;;;;;5090685;28;20021;-49
2022/05/21 04:05:03;;;;;;;11.65;7.63;;;17.90;99.90;;;;;;5088843;28;20028;-49
2022/05/21 04:07:29;;;;;;;14.88;9.30;;;18.00;99.90;;;;;;5074510;28;20021;-52
2022/05/21 04:09:54;;;;;;;16.50;8.48;;;17.90;99.90;;;;;;5071329;28;20688;-48
2022/05/21 04:12:20;;;;;;;20.23;9.57;;;17.90;99.90;;;;;;5070194;28;20123;-51
2022/05/21 04:14:46;;;;;;;14.25;9.40;;;17.80;99.90;;;;;;5068883;28;20050;-50
2022/05/21 04:17:13;;;;;;;19.13;8.75;;;17.60;99.90;;;;;;5070254;28;20123;-50
2022/05/21 04:19:40;;;;;;;9.68;7.20;;;17.70;99.90;;;;;;5086101;28;20445;-49
2022/05/21 04:22:07;;;;;;;16.45;7.80;;;17.70;99.90;;;;;;5049801;28;20040;-50
2022/05/21 04:24:33;;;;;;;19.60;8.07;;;17.60;99.90;;;;;;5069532;28;20039;-52
2022/05/21 04:26:58;;;;;;;12.98;8.30;;;17.70;99.90;;;;;;5089909;28;20024;-50
2022/05/21 04:29:24;;;;;;;16.60;8.50;;;17.60;99.90;;;;;;5090068;28;20555;-51
2022/05/21 04:31:50;;;;;;;11.90;7.00;;;17.50;99.90;;;;;;5086959;28;20037;-52
2022/05/21 04:34:15;;;;;;;8.38;6.32;;;17.50;99.90;;;;;;5070384;28;20413;-49
2022/05/21 04:36:41;;;;;;;9.02;6.70;;;17.60;99.90;;;;;;5074221;28;20110;-52
2022/05/21 04:39:07;;;;;;;13.82;6.63;;;17.50;99.90;;;;;;5089684;28;20027;-50
2022/05/21 04:41:33;;;;;;;7.57;5.32;;;17.40;99.90;;;;;;5092848;28;20464;-50
2022/05/21 04:44:00;;;;;;;13.57;6.97;;;17.50;99.90;;;;;;5093085;28;20028;-52
2022/05/21 04:46:26;;;;;;;12.85;7.10;;;17.40;99.90;;;;;;5093482;28;20012;-50
2022/05/21 04:48:52;;;;;;;13.75;6.35;;;17.40;99.90;;;;;;5093790;28;20479;-49
2022/05/21 04:51:18;;;;;;;9.88;5.97;;;17.50;99.90;;;;;;5093776;28;20024;-49
2022/05/21 04:53:43;;;;;;;9.23;6.00;;;17.50;99.90;;;;;;5093610;28;20069;-49
2022/05/21 04:56:09;;;;;;;6.78;5.65;;;17.40;99.90;;;;;;5093515;28;20031;-51
2022/05/21 04:58:35;;;;;;;10.30;6.18;;;17.30;99.90;;;;;;5093401;28;20028;-53
2022/05/21 05:01:02;;;;;;;12.65;6.28;;;17.30;99.90;;;;;;5091937;28;20028;-55
2022/05/21 05:03:28;;;;;;;13.70;6.32;;;17.20;99.90;;;;;;5093626;28;20077;-49
2022/05/21 05:05:54;;;;;;;12.23;6.53;;;17.40;99.90;;;;;;5091317;28;20040;-53
2022/05/21 05:08:21;;;;;;;11.40;5.82;;;17.50;99.90;;;;;;5082139;28;20024;-52
2022/05/21 05:10:47;;;;;;;14.35;6.78;;;17.60;99.90;;;;;;5075473;28;20086;-55
2022/05/21 05:13:15;;;;;;;9.75;5.72;;;17.50;99.90;;;;;;5075607;28;20066;-49
2022/05/21 05:15:44;;;;;;;7.22;5.80;;;17.50;99.90;;;;;;5083893;28;20024;-53
2022/05/21 05:18:12;;;;;;;10.43;6.20;;;17.60;99.90;;;;;;5091262;28;20028;-51
2022/05/21 05:20:38;;;;;;;13.90;6.35;;;17.80;99.90;;;;;;5090619;28;20051;-50
2022/05/21 05:23:05;;;;;;;14.00;5.55;;;17.90;99.90;;;;;;5093460;28;20051;-49
2022/05/21 05:25:32;;;;;;;12.30;6.78;;;18.00;99.90;;;;;;5086142;28;20059;-49
2022/05/21 05:27:58;;;;;;;8.30;5.25;;;17.90;99.90;;;;;;5072164;28;20020;-53
2022/05/21 05:30:24;;;;;;;8.63;5.88;;;18.20;99.90;;;;;;5083352;28;20039;-48
2022/05/21 05:32:50;;;;;;;14.35;6.25;;;18.20;99.90;;;;;;5089551;28;20055;-48
2022/05/21 05:35:17;;;;;;;7.13;5.18;;;18.10;99.90;;;;;;5090279;28;20032;-50
2022/05/21 05:37:43;;;;;;;9.02;5.90;;;18.10;99.90;;;;;;5091160;28;20023;-50
2022/05/21 05:40:11;;;;;;;15.02;7.85;;;18.20;99.90;;;;;;5074466;28;20086;-49
2022/05/21 05:42:38;;;;;;;8.35;5.55;;;18.10;99.90;;;;;;5070723;28;20536;-46
2022/05/21 05:45:06;;;;;;;22.67;7.40;;;18.10;99.90;;;;;;5072078;28;20032;-47
2022/05/21 05:47:33;;;;;;;11.82;5.88;;;18.00;99.90;;;;;;5070903;28;20040;-47
2022/05/21 05:49:59;;;;;;;7.40;5.45;;;18.00;99.90;;;;;;5056402;28;20028;-50
2022/05/21 05:52:26;;;;;;;6.72;5.22;;;18.20;99.90;;;;;;5071507;28;20016;-50
2022/05/21 05:54:52;;;;;;;8.27;5.60;;;18.20;99.90;;;;;;5072237;28;20036;-52
2022/05/21 05:57:18;;;;;;;7.60;5.15;;;18.20;99.90;;;;;;5072001;28;20032;-52
2022/05/21 05:59:50;;;;;;;12.73;5.07;;;18.10;99.90;;;;;;5080853;28;20055;-50
2022/05/21 06:05:08;;;;;;;8.52;4.55;;;18.30;99.90;;;;;;5079807;28;20111;-52
2022/05/21 06:07:39;;;;;;;8.13;5.13;;;18.50;99.90;;;;;;5092629;28;20024;-53
2022/05/21 06:10:06;;;;;;;18.13;5.65;;;18.60;99.90;;;;;;5086813;28;20112;-48
2022/05/21 06:12:32;;;;;;;10.50;5.30;;;18.30;99.90;;;;;;5072333;28;20016;-47
2022/05/21 06:14:58;;;;;;;7.80;4.55;;;18.30;99.90;;;;;;5084479;28;20027;-49
2022/05/21 06:17:25;;;;;;;7.18;4.40;;;18.20;99.90;;;;;;5071898;28;20048;-49
2022/05/21 06:19:52;;;;;;;9.93;5.07;;;18.20;99.90;;;;;;5072412;28;20036;-49
2022/05/21 06:22:18;;;;;;;12.57;6.57;;;18.20;99.90;;;;;;5077033;28;20040;-46
2022/05/21 06:24:44;;;;;;;10.18;4.72;;;18.30;99.90;;;;;;5091862;28;20375;-48
2022/05/21 06:27:09;;;;;;;16.67;5.00;;;18.20;99.90;;;;;;5091842;28;20039;-48
2022/05/21 06:29:38;;;;;;;8.85;5.38;;;18.30;99.90;;;;;;5086671;28;20032;-54
2022/05/21 06:32:05;;;;;;;22.00;11.65;;;18.10;99.90;;;;;;5071470;28;20383;-51
2022/05/21 06:34:32;;;;;;;9.75;5.05;;;18.10;99.90;;;;;;5072489;28;20047;-52
2022/05/21 06:37:06;;;;;;;10.23;4.78;;;18.20;99.90;;;;;;5071726;28;20048;-49
2022/05/21 06:39:32;;;;;;;8.48;4.78;;;18.40;99.90;;;;;;5074669;28;20107;-52
2022/05/21 06:41:59;;;;;;;8.68;5.45;;;18.60;99.90;;;;;;5085338;28;20093;-50
2022/05/21 06:44:25;;;;;;;7.00;4.90;;;18.60;99.90;;;;;;5071992;28;20024;-51
2022/05/21 06:46:50;;;;;;;6.60;4.75;;;18.50;99.90;;;;;;5070131;28;20040;-50
2022/05/21 06:49:17;;;;;;;8.50;4.65;;;18.60;99.90;;;;;;5070978;28;20021;-50
2022/05/21 06:51:43;;;;;;;10.50;4.38;;;18.60;99.90;;;;;;5072835;28;20032;-53
2022/05/21 06:54:09;;;;;;;7.15;3.75;;;18.80;99.90;;;;;;5091171;28;20024;-52
2022/05/21 06:56:35;;;;;;;4.80;3.95;;;18.90;99.90;;;;;;5091496;28;20099;-51
2022/05/21 06:59:00;;;;;;;6.72;3.40;;;19.10;99.90;;;;;;5088919;28;20051;-50
2022/05/21 07:01:26;;;;;;;3.95;3.50;;;19.30;99.90;;;;;;5071914;28;20020;-52
2022/05/21 07:03:51;;;;;;;11.13;3.05;;;19.30;99.90;;;;;;5069050;28;20119;-51
2022/05/21 07:09:01;;;;;;;10.82;3.50;;;19.50;99.90;;;;;;5070659;28;20653;-51
2022/05/21 07:11:27;;;;;;;9.27;3.70;;;19.70;99.90;;;;;;5074184;28;20051;-53
2022/05/21 07:13:53;;;;;;;5.75;3.42;;;19.90;99.90;;;;;;5085593;28;20028;-51
2022/05/21 07:16:18;;;;;;;5.53;3.65;;;20.00;99.90;;;;;;5071360;28;20020;-53
2022/05/21 07:18:44;;;;;;;11.70;3.53;;;20.30;99.90;;;;;;5071332;28;20013;-52
2022/05/21 07:21:15;;;;;;;16.00;3.58;;;19.90;99.90;;;;;;5088497;28;20047;-49
2022/05/21 07:23:41;;;;;;;5.60;2.92;;;19.80;99.90;;;;;;5091515;28;20050;-52
2022/05/21 07:26:07;;;;;;;6.85;4.45;;;20.00;99.90;;;;;;5078026;28;20040;-49
2022/05/21 07:28:33;;;;;;;6.13;3.63;;;19.60;99.90;;;;;;5071190;28;20376;-52
2022/05/21 07:30:59;;;;;;;9.10;3.88;;;19.40;99.90;;;;;;5087784;28;20643;-51
2022/05/21 07:33:25;;;;;;;6.32;4.38;;;19.30;99.90;;;;;;5090175;28;20035;-54
2022/05/21 07:35:51;;;;;;;11.75;4.50;;;19.30;99.90;;;;;;5091399;28;20028;-54
2022/05/21 07:38:17;;;;;;;7.15;4.45;;;19.40;99.90;;;;;;5090571;28;20467;-51
2022/05/21 07:40:46;;;;;;;8.68;4.35;;;19.20;99.90;;;;;;5075701;28;20036;-51
2022/05/21 07:43:16;;;;;;;14.73;7.00;;;19.10;99.90;;;;;;5072650;28;20602;-48
2022/05/21 07:45:43;;;;;;;11.07;4.10;;;19.10;99.90;;;;;;5071517;28;20449;-55
2022/05/21 07:48:12;;;;;;;7.53;4.70;;;19.20;99.90;;;;;;5071669;28;20357;-52
2022/05/21 07:50:40;;;;;;;7.40;4.53;;;18.90;99.90;;;;;;5070957;28;20028;-49
2022/05/21 07:53:19;;;;;;;9.02;4.22;;;18.80;99.90;;;;;;5071366;28;20368;-53
2022/05/21 07:55:48;;;;;;;7.25;4.63;;;18.70;99.90;;;;;;5072341;28;20028;-52
2022/05/21 07:58:14;;;;;;;7.18;3.95;;;18.70;99.90;;;;;;5090562;28;20024;-49
2022/05/21 08:00:40;;;;;;;6.90;4.65;;;18.70;99.90;;;;;;5090850;28;20039;-50
2022/05/21 08:03:08;;;;;;;10.27;4.38;;;18.80;99.90;;;;;;5091105;28;20030;-47
2022/05/21 08:05:34;;;;;;;7.57;4.53;;;18.90;99.90;;;;;;5091200;28;20035;-52
2022/05/21 08:08:01;;;;;;;9.95;4.18;;;19.00;99.90;;;;;;5087385;28;20558;-51
2022/05/21 08:10:27;;;;;;;8.70;4.80;;;19.30;99.90;;;;;;5069137;28;20033;-55
2022/05/21 08:12:53;;;;;;;7.43;4.40;;;19.40;99.90;;;;;;5073949;28;20024;-54
2022/05/21 08:15:21;;;;;;;6.03;4.00;;;19.40;99.90;;;;;;5071720;28;20013;-51
2022/05/21 08:17:47;;;;;;;7.40;4.25;;;19.20;99.90;;;;;;5074227;28;20033;-54
2022/05/21 08:20:14;;;;;;;8.77;4.00;;;19.20;99.90;;;;;;5079574;28;20107;-53
2022/05/21 08:28:15;;;;;;;8.05;3.92;;;20.00;99.90;;;;;;5083472;28;20033;-52
2022/05/21 08:30:43;;;;;;;4.75;3.60;;;20.10;99.90;;;;;;5074570;28;20032;-54
2022/05/21 08:33:09;;;;;;;5.25;3.22;;;20.20;99.90;;;;;;5074726;28;20021;-53
2022/05/21 08:35:38;;;;;;;7.13;3.72;;;20.10;99.90;;;;;;5074774;28;20046;-52
2022/05/21 08:38:07;;;;;;;5.47;3.38;;;20.20;99.90;;;;;;5074383;28;20032;-52
2022/05/21 08:40:43;;;;;;;6.80;2.92;;;20.10;99.90;;;;;;5074719;28;20353;-52
2022/05/21 08:43:47;;;;;;;8.30;2.92;;;19.90;99.90;;;;;;5074351;28;20108;-52
2022/05/21 08:47:01;;;;;;;5.28;2.90;;;20.10;99.90;;;;;;5074296;28;20103;-54
2022/05/21 08:49:33;;;;;;;3.90;2.80;;;20.20;99.90;;;;;;5074144;28;20044;-51
2022/05/21 08:52:04;;;;;;;5.35;2.80;;;20.60;99.90;;;;;;5074088;28;20020;-51
2022/05/21 08:54:43;;;;;;;8.55;2.75;;;20.90;99.90;;;;;;5072671;28;20013;-49
2022/05/21 08:57:14;;;;;;;12.70;2.75;;;21.00;98.80;;;;;;5072557;28;20364;-52
2022/05/21 08:59:46;;;;;;;8.45;2.58;;;20.70;97.70;;;;;;5073742;28;20036;-52
2022/05/21 09:02:16;;;;;;;5.38;2.53;;;20.80;98.80;;;;;;5073618;28;20024;-54
2022/05/21 09:04:43;;;;;;;3.45;2.17;;;20.60;98.10;;;;;;5073892;28;20056;-55
2022/05/21 09:07:18;;;;;;;7.07;2.25;;;20.60;98.10;;;;;;5073847;28;20364;-52
2022/05/21 09:10:05;;;;;;;5.40;1.90;;;21.20;98.30;;;;;;5072954;28;20029;-52
2022/05/21 09:12:53;;;;;;;6.03;2.40;;;21.20;97.90;;;;;;5071291;28;20104;-51
2022/05/21 09:18:09;;;;;;;3.08;2.13;;;20.70;95.40;;;;;;5071228;28;20510;-52
2022/05/21 09:20:59;;;;;;;2.03;1.85;;;21.00;96.90;;;;;;5073237;28;20028;-52
2022/05/21 09:23:46;;;;;;;6.43;2.50;;;21.00;95.10;;;;;;5070665;28;20436;-59
2022/05/21 09:26:11;;;;;;;4.75;2.95;;;21.30;94.70;;;;;;5064753;28;20050;-54
2022/05/21 09:28:39;;;;;;;7.00;2.30;;;21.40;95.80;;;;;;5073124;28;20030;-51
2022/05/21 09:31:06;;;;;;;2.50;2.25;;;21.60;97.00;;;;;;5085364;28;20104;-49
2022/05/21 09:33:40;;;;;;;3.70;2.17;;;22.00;95.50;;;;;;5093930;28;20107;-51
2022/05/21 09:36:07;;;;;;;6.18;2.00;;;22.10;93.80;;;;;;5076416;28;20059;-52
2022/05/21 09:38:47;;;;;;;2.72;1.85;;;22.00;95.40;;;;;;5074072;28;20025;-51
2022/05/21 09:41:26;;;;;;;7.68;2.35;;;22.10;94.40;;;;;;5073609;28;20392;-54
2022/05/21 09:46:43;;;;;;;5.68;2.40;;;22.20;92.90;;;;;;5073543;28;20051;-52
2022/05/21 09:49:28;;;;;;;8.90;2.30;;;22.20;94.50;;;;;;5073138;28;20051;-47
2022/05/21 09:52:01;;;;;;;6.20;2.50;;;22.00;92.50;;;;;;5077555;28;20047;-49
2022/05/21 09:54:33;;;;;;;3.50;2.80;;;21.90;93.40;;;;;;5093412;28;20028;-48
2022/05/21 09:56:59;;;;;;;6.35;2.47;;;22.00;94.00;;;;;;5093475;28;20254;-51
2022/05/21 09:59:28;;;;;;;3.75;1.80;;;22.20;94.60;;;;;;5093428;28;20445;-51
2022/05/21 10:01:58;;;;;;;2.08;1.85;;;22.30;95.60;;;;;;5093421;28;20028;-54
2022/05/21 10:04:56;;;;;;;4.38;1.92;;;22.10;91.50;;;;;;5090544;28;20012;-54
2022/05/21 10:13:19;;;;;;;3.58;1.70;;;22.00;91.40;;;;;;5073384;28;20348;-51
2022/05/21 10:15:51;;;;;;;2.45;2.00;;;22.40;91.80;;;;;;5081403;28;20034;-49
2022/05/21 10:18:22;;;;;;;3.15;1.60;;;22.90;92.10;;;;;;5093192;28;20031;-55
2022/05/21 10:20:54;;;;;;;6.25;1.63;;;22.80;91.60;;;;;;5093315;28;20525;-50
2022/05/21 10:23:50;;;;;;;3.78;1.45;;;22.50;88.60;;;;;;5093130;28;20047;-51
2022/05/21 10:27:06;;;;;;;3.55;1.63;;;22.70;90.00;;;;;;5093056;28;20069;-53
2022/05/21 10:29:47;;;;;;;1.60;1.20;;;22.50;85.20;;;;;;5079256;28;20455;-49
2022/05/21 10:32:21;;;;;;;3.30;1.88;;;23.10;87.50;;;;;;5072721;28;20096;-50
2022/05/21 10:34:53;;;;;;;3.88;1.88;;;23.40;88.60;;;;;;5072573;28;20024;-49
2022/05/21 10:37:28;;;;;;;3.15;1.52;;;23.10;85.50;;;;;;5072241;28;20423;-49
2022/05/21 10:40:13;;;;;;;5.90;1.60;;;23.20;85.20;;;;;;5072551;28;20029;-48
2022/05/21 10:42:48;;;;;;;9.05;1.73;;;23.60;87.30;;;;;;5078013;28;20024;-51
2022/05/21 10:45:43;;;;;;;4.53;1.95;;;24.10;87.40;;;;;;5041248;28;20043;-53
2022/05/21 10:48:27;;;;;;;3.40;1.60;;;24.30;85.50;;;;;;5038216;28;20049;-54
2022/05/21 10:51:23;;;;;;;4.53;1.10;;;24.30;79.90;;;;;;5040507;28;20142;-51
2022/05/21 10:53:57;;;;;;;1.83;1.33;;;24.20;81.90;;;;;;5040892;28;20032;-52
2022/05/21 10:56:41;;;;;;;6.40;1.55;;;24.10;76.60;;;;;;5041015;28;20037;-54
2022/05/21 10:59:32;;;;;;;1.88;1.40;;;23.90;79.60;;;;;;5041673;28;20049;-55
2022/05/21 11:02:00;;;;;;;4.57;1.33;;;23.40;81.60;;;;;;5041941;28;20021;-54
2022/05/21 11:05:02;;;;;;;3.60;1.80;;;23.80;77.00;;;;;;5041366;28;20032;-54
2022/05/21 11:07:40;;;;;;;4.63;1.20;;;23.70;76.60;;;;;;5044748;28;20090;-54
2022/05/21 11:10:26;;;;;;;5.38;1.40;;;23.80;78.30;;;;;;5041009;28;20033;-53
2022/05/21 11:13:19;;;;;;;2.85;1.70;;;24.40;74.10;;;;;;5043064;28;20515;-50
2022/05/21 11:15:52;;;;;;;3.35;1.52;;;24.00;73.70;;;;;;5050827;28;20037;-49
2022/05/21 11:19:09;;;;;;;1.98;1.42;;;23.80;74.50;;;;;;5051226;28;20017;-51
2022/05/21 11:21:39;;;;;;;4.35;1.10;;;23.90;74.00;;;;;;5041385;28;20040;-53
2022/05/21 11:24:20;;;;;;;1.67;1.55;;;24.90;76.10;;;;;;5092034;28;20056;-54
2022/05/21 11:27:00;;;;;;;2.00;1.80;;;24.80;73.40;;;;;;5091953;28;20020;-50
2022/05/21 11:29:28;;;;;;;1.60;1.30;;;25.20;76.50;;;;;;5091877;28;20052;-54
2022/05/21 11:37:44;;;;;;;1.13;0.90;;;24.70;72.50;;;;;;5091828;28;20421;-51
2022/05/21 11:40:50;;;;;;;1.73;1.00;;;24.30;70.30;;;;;;5090629;28;20478;-52
2022/05/21 11:43:18;;;;;;;5.82;1.10;;;24.90;73.50;;;;;;5090203;28;20028;-53
2022/05/21 11:46:05;;;;;;;1.88;1.20;;;25.30;70.10;;;;;;5090833;28;20028;-49
2022/05/21 11:48:31;;;;;;;1.63;1.10;;;25.50;68.50;;;;;;5071369;28;20647;-52
2022/05/21 11:51:22;;;;;;;2.58;1.55;;;25.30;69.30;;;;;;5070326;28;20098;-52
2022/05/21 11:53:48;;;;;;;4.03;1.30;;;24.80;65.20;;;;;;5071071;28;20017;-53
2022/05/21 11:56:14;;;;;;;2.28;1.27;;;24.40;65.40;;;;;;5071189;28;20108;-54
2022/05/21 11:58:57;;;;;;;3.08;1.00;;;25.00;69.50;;;;;;5071305;28;20027;-51
2022/05/21 12:01:41;;;;;;;1.38;1.10;;;24.80;65.30;;;;;;5072314;28;20038;-49
2022/05/21 12:04:22;;;;;;;1.83;1.20;;;24.40;67.50;;;;;;5071129;28;20024;-49
2022/05/21 12:06:48;;;;;;;1.45;0.90;;;24.50;65.40;;;;;;5082576;28;20020;-51
2022/05/21 12:09:29;;;;;;;1.80;1.08;;;24.90;61.40;;;;;;5091375;28;20115;-54
2022/05/21 12:12:23;;;;;;;2.88;1.00;;;25.90;63.30;;;;;;5091186;28;20028;-52
2022/05/21 12:14:55;;;;;;;3.00;0.98;;;27.20;57.20;;;;;;5091162;28;20105;-54
2022/05/21 12:17:51;;;;;;;9.25;1.63;;;27.40;55.70;;;;;;5091265;28;20017;-54
2022/05/21 12:20:40;;;;;;;1.13;0.90;;;27.20;54.70;;;;;;5088501;28;20647;-57
2022/05/21 12:23:33;;;;;;;7.72;0.80;;;27.40;61.00;;;;;;5070832;28;20048;-55
2022/05/21 12:26:04;;;;;;;1.58;0.85;;;28.20;59.20;;;;;;5070402;28;20431;-52
2022/05/21 12:28:51;;;;;;;3.10;1.05;;;29.20;55.70;;;;;;5071013;28;20028;-54
2022/05/21 12:31:26;;;;;;;7.03;1.13;;;29.20;52.00;;;;;;5071029;28;20385;-51
2022/05/21 12:33:55;;;;;;;4.63;0.80;;;31.00;57.10;;;;;;5074907;28;20039;-56
2022/05/21 12:37:00;;;;;;;1.58;0.93;;;31.50;50.10;;;;;;5091259;28;20395;-58
2022/05/21 12:39:32;;;;;;;4.22;1.00;;;29.60;49.60;;;;;;5057726;28;20029;-52
2022/05/21 12:42:07;;;;;;;6.57;0.93;;;30.10;50.80;;;;;;5070951;28;20020;-55
2022/05/21 12:44:50;;;;;;;4.45;0.70;;;28.90;49.70;;;;;;5070632;28;20028;-55
2022/05/21 12:47:28;;;;;;;1.30;0.80;;;28.80;51.90;;;;;;5071064;28;20023;-56
2022/05/21 12:50:40;;;;;;;0.60;0.50;;;29.50;52.90;;;;;;5070028;28;20028;-52
2022/05/21 12:53:07;;;;;;;0.80;0.80;;;29.60;49.40;;;;;;5070116;28;20073;-55
2022/05/21 12:55:34;;;;;;;1.30;1.00;;;29.80;52.30;;;;;;5070451;28;20028;-55
2022/05/21 12:58:08;;;;;;;1.00;0.90;;;28.70;49.60;;;;;;5070873;28;20028;-54
2022/05/21 13:00:36;;;;;;;2.03;0.80;;;29.80;50.60;;;;;;5088184;28;20027;-56
2022/05/21 13:03:07;;;;;;;1.40;0.93;;;29.60;51.10;;;;;;5093112;28;20020;-54
2022/05/21 13:05:37;;;;;;;2.60;0.80;;;28.80;51.20;;;;;;5094041;28;20043;-56
2022/05/21 13:08:05;;;;;;;1.77;1.13;;;29.80;52.30;;;;;;5092984;28;20028;-55
2022/05/21 13:10:36;;;;;;;5.13;1.35;;;29.10;49.40;;;;;;5085896;28;20710;-56
2022/05/21 13:13:08;;;;;;;1.38;0.80;;;30.40;48.10;;;;;;5073696;28;20028;-50
2022/05/21 13:15:37;;;;;;;2.30;1.13;;;31.50;46.10;;;;;;5072484;28;20522;-53
2022/05/21 13:18:03;;;;;;;3.92;1.00;;;31.00;46.00;;;;;;5072520;28;20029;-54
2022/05/21 13:20:41;;;;;;;8.43;0.90;;;29.90;48.20;;;;;;5071639;28;20028;-55
2022/05/21 13:23:09;;;;;;;1.25;0.80;;;30.20;50.90;;;;;;5073558;28;20063;-55
2022/05/21 13:25:36;;;;;;;6.65;1.20;;;31.60;49.60;;;;;;5075386;28;20040;-54
2022/05/21 13:28:17;;;;;;;1.58;0.90;;;31.20;45.00;;;;;;5093164;28;20020;-55
2022/05/21 13:30:47;;;;;;;1.38;0.82;;;30.00;45.90;;;;;;5093074;28;20111;-55
2022/05/21 13:33:46;;;;;;;2.05;0.88;;;29.80;47.30;;;;;;5093840;28;20605;-56
2022/05/21 13:36:14;;;;;;;2.83;0.90;;;30.00;46.90;;;;;;5093905;28;20031;-54
2022/05/21 13:38:45;;;;;;;7.60;1.00;;;31.20;47.30;;;;;;5093886;28;20021;-56